Terminal Aerodrome Forecast
Issued by NWS

Home | Current Version | Previous Version | Text Only | Print | Product List | Glossary On
Versions: 1 2 3 4 5 6 7 8 9 10 11 12 13 14
000
FTUS45 KFGZ 040536
TAFPRC
TAF
KPRC 040536Z 0406/0506 14007KT P6SM FEW070 SCT200
     FM041800 18012G18KT P6SM SCT050 BKN250 PROB30 0420/0502
      VRB15G25KT 5SM TSRA BKN040CB
     FM050230 19007KT P6SM BKN050=

USA.gov is the U.S. government's official web portal to all federal, state and local government web resources and services.